Date,TemperatureHighF,TemperatureAvgF,TemperatureLowF,DewpointHighF,DewpointAvgF,DewpointLowF,HumidityHigh,HumidityAvg,HumidityLow,PressureMaxIn,PressureMinIn,WindSpeedMaxMPH,WindSpeedAvgMPH,GustSpeedMaxMPH,PrecipitationSumIn
2013-9-1,82.2,74.4,69.9,69.8,68.8,67.7,95,83,64,29.85,29.79,1,0,5,0.03
2013-9-2,69.9,66.6,63.7,68.7,66.0,63.1,99,98,95,29.83,29.68,1,0,6,2.08
2013-9-3,77.6,68.5,59.5,68.5,64.9,58.4,99,89,71,29.70,29.63,5,1,12,0.02
2013-9-4,79.2,65.6,53.6,63.2,56.7,49.9,99,77,39,29.84,29.69,4,1,14,0.00
2013-9-5,66.4,58.0,43.6,60.3,48.3,35.8,97,74,34,30.09,29.80,6,1,17,0.07
2013-9-6,67.1,52.0,37.3,54.3,42.8,36.5,98,75,38,30.18,29.99,7,1,15,0.00
2013-9-7,72.1,57.4,44.5,61.9,52.0,43.7,98,84,51,29.99,29.73,6,0,11,0.01
2013-9-8,62.6,56.3,42.2,58.6,48.5,37.0,99,78,45,30.02,29.66,10,2,26,0.18
2013-9-9,67.3,51.3,35.5,52.7,43.3,34.5,98,78,41,30.15,30.02,7,1,16,0.00
2013-9-10,64.8,53.0,42.9,61.9,51.9,42.1,98,96,88,30.05,29.98,2,0,4,0.01
2013-9-11,77.4,64.0,61.8,70.9,63.2,60.9,99,97,81,30.00,29.94,3,0,6,0.00
2013-9-12,72.9,67.8,66.0,68.8,66.4,65.4,99,95,78,29.92,29.60,17,2,18,0.31
2013-9-13,70.1,63.5,56.5,66.1,61.8,53.4,99,94,77,29.67,29.54,5,1,16,0.43
2013-9-14,66.3,58.0,51.3,54.4,51.8,47.3,97,81,59,29.98,29.67,8,1,18,0.02
2013-9-15,68.8,54.6,41.1,58.2,48.1,40.3,99,82,47,30.08,29.94,5,1,13,0.00
2013-9-16,62.9,53.2,38.5,56.1,47.1,33.9,99,81,53,30.23,29.92,7,1,19,0.07
2013-9-17,64.7,48.6,34.4,49.6,39.3,33.1,96,74,38,30.37,30.23,5,1,15,0.00
2013-9-18,71.1,52.3,36.3,56.8,44.1,35.5,99,79,32,30.26,30.06,7,1,15,0.00
2013-9-19,75.3,56.0,39.8,60.5,49.1,39.0,99,81,44,30.08,29.97,6,1,12,0.00
2013-9-20,76.3,58.3,43.3,59.0,50.8,42.8,99,80,44,30.06,29.95,4,1,10,0.00
2013-9-21,69.6,58.2,45.8,62.6,54.4,45.0,99,88,64,29.98,29.67,10,3,21,0.02
2013-9-22,71.3,63.1,50.7,64.4,56.1,41.7,97,79,50,29.72,29.52,10,4,23,0.41
2013-9-23,52.0,48.3,45.5,43.4,39.0,36.6,84,70,61,29.84,29.71,11,4,30,0.00
2013-9-24,53.9,50.0,44.4,45.7,40.4,35.6,92,70,57,29.89,29.78,22,16,22,0.00
2013-9-25,59.1,51.2,42.3,48.5,43.7,39.7,94,76,59,29.94,29.83,17,9,17,0.00
2013-9-26,66.0,58.9,40.6,50.3,49.1,39.5,97,71,54,30.11,29.95,7,2,14,0.00
2013-9-27,69.8,58.0,48.6,58.9,51.1,47.5,97,79,50,30.22,30.10,3,0,10,0.00
2013-9-28,73.9,56.4,43.8,55.5,48.6,43.3,99,79,39,30.30,30.22,4,0,11,0.00
2013-9-29,70.8,52.8,40.5,54.3,47.0,39.7,99,83,49,30.23,30.07,4,1,12,0.01
2013-9-30,70.9,51.5,37.3,56.0,46.3,36.5,99,85,54,30.08,29.93,3,0,9,0.00